Time;durP1;ratioP1;P1;durP2;ratioP2;P2;SDS_P1;SDS_P2;PMS_P1;PMS_P2;Temp;Humidity;BMP_temperature;BMP_pressure;BME280_temperature;BME280_humidity;BME280_pressure;Samples;Min_cycle;Max_cycle;Signal;HPM_P1;HPM_P2
2023/02/13 00:02:17;;;;;;;19.37;14.47;;;9.50;1.00;;;;;;4974837;28;20455;-82
2023/02/13 00:04:44;;;;;;;21.10;14.80;;;9.50;1.00;;;;;;4978141;28;20471;-82
2023/02/13 00:07:12;;;;;;;20.03;14.97;;;9.50;1.00;;;;;;4974869;28;20564;-81
2023/02/13 00:09:40;;;;;;;19.93;14.23;;;9.50;1.00;;;;;;4976302;28;20897;-84
2023/02/13 00:12:08;;;;;;;23.90;15.10;;;9.50;1.00;;;;;;4973662;28;20472;-82
2023/02/13 00:14:37;;;;;;;19.07;13.77;;;9.50;1.00;;;;;;4980719;28;20466;-82
2023/02/13 00:17:05;;;;;;;20.60;14.83;;;9.40;1.00;;;;;;4980327;28;20499;-83
2023/02/13 00:19:32;;;;;;;19.13;14.43;;;9.50;1.00;;;;;;4978973;28;20504;-82
2023/02/13 00:21:59;;;;;;;19.87;13.57;;;9.50;1.00;;;;;;4984519;28;20453;-83
2023/02/13 00:24:27;;;;;;;21.07;14.47;;;9.50;1.00;;;;;;4984341;28;20473;-83
2023/02/13 00:26:54;;;;;;;20.83;13.90;;;9.50;1.00;;;;;;4981635;28;20512;-83
2023/02/13 00:29:21;;;;;;;22.67;15.20;;;9.50;1.00;;;;;;4974139;28;20464;-83
2023/02/13 00:31:47;;;;;;;18.80;14.03;;;9.40;1.00;;;;;;4964295;28;20813;-82
2023/02/13 00:34:14;;;;;;;16.93;13.67;;;9.50;1.00;;;;;;4971855;28;20477;-82
2023/02/13 00:36:41;;;;;;;22.93;15.73;;;9.50;1.00;;;;;;4973428;28;20905;-82
2023/02/13 00:39:10;;;;;;;21.37;14.73;;;9.50;1.00;;;;;;4970488;28;20516;-80
2023/02/13 00:41:39;;;;;;;18.63;14.03;;;9.50;1.00;;;;;;4969434;28;20458;-82
2023/02/13 00:44:06;;;;;;;20.20;12.80;;;9.50;1.00;;;;;;4970240;28;20485;-81
2023/02/13 00:46:33;;;;;;;23.13;14.37;;;9.40;1.00;;;;;;4970820;28;21036;-82
2023/02/13 00:49:00;;;;;;;20.23;13.37;;;9.50;1.00;;;;;;4979252;28;20493;-81
2023/02/13 00:51:27;;;;;;;18.80;13.13;;;9.50;1.00;;;;;;4985353;28;20462;-82
2023/02/13 00:53:53;;;;;;;21.63;14.30;;;9.50;1.00;;;;;;4983462;28;20538;-83
2023/02/13 00:56:20;;;;;;;19.93;13.40;;;9.50;1.00;;;;;;4980358;28;20527;-82
2023/02/13 00:58:48;;;;;;;20.33;12.63;;;9.40;1.00;;;;;;4982868;28;21066;-83
2023/02/13 01:01:15;;;;;;;18.00;12.20;;;9.40;1.00;;;;;;4981826;28;20486;-82
2023/02/13 01:03:42;;;;;;;18.60;11.90;;;9.40;1.00;;;;;;4980369;28;20480;-83
2023/02/13 01:06:09;;;;;;;21.93;12.77;;;9.40;1.00;;;;;;4973098;28;21215;-82
2023/02/13 01:08:39;;;;;;;18.60;12.30;;;9.40;1.00;;;;;;4975821;28;20563;-83
2023/02/13 01:11:06;;;;;;;21.80;14.43;;;9.40;1.00;;;;;;4970292;28;20481;-83
2023/02/13 01:13:33;;;;;;;15.17;10.80;;;9.40;1.00;;;;;;4967158;28;20466;-83
2023/02/13 01:16:02;;;;;;;16.30;10.90;;;9.40;1.00;;;;;;4975200;28;20463;-83
2023/02/13 01:18:29;;;;;;;19.20;14.30;;;9.40;1.00;;;;;;4973652;28;20526;-83
2023/02/13 01:20:58;;;;;;;14.60;11.30;;;9.40;1.00;;;;;;4965186;28;20490;-81
2023/02/13 01:23:25;;;;;;;14.13;10.90;;;9.50;1.00;;;;;;4980519;28;20502;-83
2023/02/13 01:25:51;;;;;;;14.93;11.40;;;9.40;1.00;;;;;;4980502;28;20463;-82
2023/02/13 01:28:18;;;;;;;18.50;11.57;;;9.40;1.00;;;;;;4979601;28;20517;-82
2023/02/13 01:30:45;;;;;;;14.57;11.33;;;9.50;1.00;;;;;;4978247;28;20989;-80
2023/02/13 01:33:13;;;;;;;14.80;10.70;;;9.50;1.00;;;;;;4972693;28;20456;-82
2023/02/13 01:35:40;;;;;;;17.37;10.77;;;9.50;1.00;;;;;;4976652;28;20573;-82
2023/02/13 01:38:07;;;;;;;14.33;9.97;;;9.40;1.00;;;;;;4976398;28;20560;-82
2023/02/13 01:40:34;;;;;;;15.70;10.50;;;9.50;1.00;;;;;;4967033;28;20590;-82
2023/02/13 01:43:00;;;;;;;15.57;11.10;;;9.50;1.00;;;;;;4969093;28;20461;-82
2023/02/13 01:45:30;;;;;;;13.13;9.10;;;9.40;1.00;;;;;;4977145;28;20461;-81
2023/02/13 01:47:59;;;;;;;14.23;10.20;;;9.50;1.00;;;;;;4975298;28;20524;-81
2023/02/13 01:50:32;;;;;;;15.23;10.00;;;9.50;1.00;;;;;;4970060;28;20456;-82
2023/02/13 01:53:04;;;;;;;12.27;8.00;;;9.40;1.00;;;;;;4976130;28;20453;-82
2023/02/13 01:55:32;;;;;;;11.40;7.20;;;9.50;1.00;;;;;;4962777;28;20466;-80
2023/02/13 01:58:04;;;;;;;9.70;6.53;;;9.40;1.00;;;;;;4976900;28;21028;-81
2023/02/13 02:00:31;;;;;;;12.10;8.33;;;9.30;1.00;;;;;;4976429;28;20493;-81
2023/02/13 02:03:04;;;;;;;8.67;6.33;;;9.30;1.00;;;;;;4974121;28;21025;-82
2023/02/13 02:05:35;;;;;;;8.87;5.67;;;9.40;1.00;;;;;;4977204;28;20463;-80
2023/02/13 02:08:05;;;;;;;8.80;6.07;;;9.40;1.00;;;;;;4969693;28;22581;-81
2023/02/13 02:10:33;;;;;;;8.73;6.10;;;9.40;1.00;;;;;;4976430;28;20475;-81
2023/02/13 02:13:06;;;;;;;10.77;7.30;;;9.40;1.00;;;;;;4975598;28;20481;-82
2023/02/13 02:15:33;;;;;;;7.90;5.53;;;9.30;1.00;;;;;;4976630;28;20532;-83
2023/02/13 02:18:00;;;;;;;13.00;7.43;;;9.40;1.00;;;;;;4974815;28;20485;-83
2023/02/13 02:20:54;;;;;;;7.97;5.60;;;9.30;99.90;;;;;;4976072;28;20489;-83
2023/02/13 02:23:44;;;;;;;7.50;5.00;;;9.30;99.90;;;;;;4968734;28;20494;-82
2023/02/13 02:26:40;;;;;;;9.50;4.80;;;9.20;1.00;;;;;;4972836;28;20449;-82
2023/02/13 02:29:32;;;;;;;7.37;5.13;;;9.20;1.00;;;;;;4968822;28;20541;-81
2023/02/13 02:32:16;;;;;;;7.60;4.80;;;9.20;1.00;;;;;;4975056;28;20472;-82
2023/02/13 02:34:51;;;;;;;7.40;4.80;;;9.20;99.90;;;;;;4961823;28;20480;-80
2023/02/13 02:37:31;;;;;;;8.17;4.60;;;9.20;99.90;;;;;;4987750;28;20506;-83
2023/02/13 02:40:08;;;;;;;6.57;5.17;;;9.20;1.00;;;;;;4986087;28;20495;-82
2023/02/13 02:42:49;;;;;;;6.30;4.97;;;9.20;99.90;;;;;;4985884;28;20544;-82
2023/02/13 02:45:24;;;;;;;7.03;5.57;;;9.20;99.90;;;;;;4979034;28;20470;-83
2023/02/13 02:50:50;;;;;;;5.40;4.37;;;9.10;1.00;;;;;;4981348;28;20479;-83
2023/02/13 02:53:30;;;;;;;8.80;5.37;;;9.10;1.00;;;;;;4981976;28;20484;-83
2023/02/13 02:56:04;;;;;;;6.93;4.73;;;9.10;1.00;;;;;;4982530;28;20505;-83
2023/02/13 03:07:06;;;;;;;6.47;4.00;;;8.90;1.00;;;;;;4968148;28;20526;-83
2023/02/13 03:15:11;;;;;;;6.57;4.33;;;9.00;1.00;;;;;;4969754;28;20557;-82
2023/02/13 03:23:30;;;;;;;6.10;4.40;;;8.90;1.00;;;;;;4968579;28;20520;-82
2023/02/13 03:26:13;;;;;;;5.67;4.80;;;8.80;1.00;;;;;;4972571;28;20698;-84
2023/02/13 03:31:43;;;;;;;6.77;4.50;;;8.80;1.00;;;;;;4974484;28;20499;-83
2023/02/13 03:34:13;;;;;;;7.70;4.83;;;8.80;1.00;;;;;;4966261;28;20454;-84
2023/02/13 03:39:46;;;;;;;5.80;4.10;;;8.70;1.00;;;;;;4970953;28;20486;-83
2023/02/13 03:42:21;;;;;;;6.73;4.50;;;8.70;1.00;;;;;;4967614;28;20442;-84
2023/02/13 03:45:51;;;;;;;7.60;5.27;;;8.80;1.00;;;;;;4972869;28;20475;-84
2023/02/13 03:47:41;;;;;;;6.30;4.50;;;8.60;1.00;;;;;;4970859;28;20497;-84
2023/02/13 03:50:08;;;;;;;5.40;4.87;;;8.80;1.00;;;;;;4973392;28;20464;-83
2023/02/13 03:52:43;;;;;;;6.20;4.30;;;8.80;1.00;;;;;;4974426;28;20967;-84
2023/02/13 04:00:50;;;;;;;6.40;3.50;;;8.70;1.00;;;;;;4970188;28;20486;-82
2023/02/13 04:03:25;;;;;;;5.13;3.50;;;8.70;1.00;;;;;;4972309;28;21187;-82
2023/02/13 04:05:55;;;;;;;5.03;3.40;;;8.70;1.00;;;;;;4969355;28;20470;-82
2023/02/13 04:08:24;;;;;;;10.60;5.07;;;8.70;1.00;;;;;;4961476;28;20496;-81
2023/02/13 04:10:54;;;;;;;5.40;3.83;;;8.70;1.00;;;;;;4970412;28;20495;-82
2023/02/13 04:13:30;;;;;;;5.87;4.07;;;8.70;1.00;;;;;;4970479;28;20445;-81
2023/02/13 04:15:59;;;;;;;5.00;3.83;;;8.70;1.00;;;;;;4971871;28;20867;-83
2023/02/13 04:18:29;;;;;;;5.40;3.80;;;8.70;1.00;;;;;;4969094;28;20513;-82
2023/02/13 04:20:55;;;;;;;11.23;3.93;;;8.60;99.90;;;;;;4969418;28;20493;-83
2023/02/13 04:23:24;;;;;;;5.50;3.43;;;8.70;1.00;;;;;;4972632;28;20856;-82
2023/02/13 04:25:53;;;;;;;6.53;3.20;;;8.60;99.90;;;;;;4973599;28;20453;-83
2023/02/13 04:28:20;;;;;;;4.30;3.37;;;8.70;1.00;;;;;;4972186;28;20488;-81
2023/02/13 04:30:47;;;;;;;5.20;2.83;;;8.70;99.90;;;;;;4970839;28;20555;-82
2023/02/13 04:33:14;;;;;;;5.13;3.57;;;8.70;1.00;;;;;;4964174;28;20613;-81
2023/02/13 04:35:40;;;;;;;5.83;4.40;;;8.70;1.00;;;;;;4971507;28;20993;-82
2023/02/13 04:38:07;;;;;;;6.73;3.70;;;8.70;1.00;;;;;;4966519;28;20559;-81
2023/02/13 04:40:35;;;;;;;6.40;4.07;;;8.70;1.00;;;;;;4968877;28;20495;-81
2023/02/13 04:43:03;;;;;;;6.63;4.23;;;8.60;1.00;;;;;;4965253;28;20449;-81
2023/02/13 04:45:30;;;;;;;5.80;4.00;;;8.60;1.00;;;;;;4971460;28;20477;-81
2023/02/13 04:47:57;;;;;;;5.67;3.60;;;8.60;1.00;;;;;;4971499;28;20477;-81
2023/02/13 04:50:25;;;;;;;6.53;3.90;;;8.70;1.00;;;;;;4963176;28;20474;-82
2023/02/13 04:52:54;;;;;;;6.00;3.93;;;8.70;1.00;;;;;;4970982;28;20455;-81
2023/02/13 04:55:21;;;;;;;7.03;3.70;;;8.70;1.00;;;;;;4970155;28;20469;-80
2023/02/13 04:57:52;;;;;;;7.23;3.50;;;8.70;1.00;;;;;;4974688;28;20493;-81
2023/02/13 05:00:20;;;;;;;6.00;4.37;;;8.70;1.00;;;;;;4974476;28;20491;-80
2023/02/13 05:02:47;;;;;;;5.63;4.10;;;8.70;1.00;;;;;;4982615;28;20464;-81
2023/02/13 05:05:14;;;;;;;5.97;4.40;;;8.70;1.00;;;;;;4979997;28;20475;-81
2023/02/13 05:07:41;;;;;;;5.50;3.20;;;8.70;1.00;;;;;;5001173;28;20483;-81
2023/02/13 05:10:09;;;;;;;6.90;4.50;;;8.70;1.00;;;;;;4971030;28;20542;-79
2023/02/13 05:12:36;;;;;;;6.27;3.63;;;8.70;1.00;;;;;;4974424;28;20460;-81
2023/02/13 05:15:05;;;;;;;7.33;4.20;;;8.60;1.00;;;;;;4988106;28;20471;-85
2023/02/13 05:17:32;;;;;;;5.80;3.70;;;8.60;1.00;;;;;;4988758;28;20481;-79
2023/02/13 05:19:59;;;;;;;7.70;4.43;;;8.60;1.00;;;;;;5011810;28;20494;-80
2023/02/13 05:25:10;;;;;;;7.10;3.90;;;8.70;1.00;;;;;;4967209;28;20439;-82
2023/02/13 05:27:37;;;;;;;7.70;5.63;;;8.60;1.00;;;;;;4972970;28;20570;-82
2023/02/13 05:30:06;;;;;;;8.87;5.40;;;8.60;1.00;;;;;;4972937;28;20482;-80
2023/02/13 05:32:33;;;;;;;7.60;5.00;;;8.60;1.00;;;;;;4979648;28;20466;-80
2023/02/13 05:35:00;;;;;;;8.30;5.77;;;8.60;1.00;;;;;;4975270;28;20452;-81
2023/02/13 05:37:27;;;;;;;7.77;6.03;;;8.60;1.00;;;;;;4973875;28;20551;-79
2023/02/13 05:39:54;;;;;;;10.60;6.13;;;8.60;1.00;;;;;;4971902;28;20472;-81
2023/02/13 05:42:20;;;;;;;12.27;6.67;;;8.60;1.00;;;;;;4976046;28;20547;-82
2023/02/13 05:44:47;;;;;;;10.90;7.00;;;8.60;1.00;;;;;;4971194;28;20968;-82
2023/02/13 05:47:15;;;;;;;14.43;7.13;;;8.60;1.00;;;;;;4990601;23;21355;-84
2023/02/13 05:49:42;;;;;;;8.50;6.10;;;8.60;1.00;;;;;;5017148;28;20458;-89
2023/02/13 05:52:09;;;;;;;11.00;7.17;;;8.50;1.00;;;;;;5017690;28;20472;-86
2023/02/13 05:54:37;;;;;;;11.17;6.70;;;8.50;1.00;;;;;;5018036;28;20461;-88
2023/02/13 05:57:04;;;;;;;9.30;6.07;;;8.50;1.00;;;;;;5027101;28;20461;-87
2023/02/13 05:59:31;;;;;;;8.03;5.73;;;8.60;1.00;;;;;;5103923;28;20512;-88
2023/02/13 06:01:57;;;;;;;7.60;6.23;;;8.50;1.00;;;;;;5096984;28;20506;-86
2023/02/13 06:04:26;;;;;;;8.63;5.20;;;8.60;1.00;;;;;;5091328;28;20455;-84
2023/02/13 06:06:53;;;;;;;9.70;6.50;;;8.50;1.00;;;;;;5095995;28;20463;-83
2023/02/13 06:09:20;;;;;;;8.07;4.80;;;8.50;1.00;;;;;;5088423;28;20494;-85
2023/02/13 06:11:47;;;;;;;10.30;6.53;;;8.50;1.00;;;;;;5098231;28;20453;-81
2023/02/13 06:14:14;;;;;;;8.90;6.57;;;8.40;1.00;;;;;;5100053;28;20458;-82
2023/02/13 06:16:41;;;;;;;8.90;6.10;;;8.40;1.00;;;;;;5099751;28;20455;-86
2023/02/13 06:19:08;;;;;;;11.10;7.10;;;8.30;1.00;;;;;;5099570;28;20479;-82
2023/02/13 06:21:37;;;;;;;10.23;6.40;;;8.20;1.00;;;;;;5095991;28;20494;-83
2023/02/13 06:24:05;;;;;;;11.53;6.67;;;8.20;1.00;;;;;;5077691;28;20492;-80
2023/02/13 06:26:32;;;;;;;9.30;6.10;;;8.10;1.00;;;;;;5069137;28;20475;-81
2023/02/13 06:28:59;;;;;;;9.20;6.20;;;8.00;1.00;;;;;;5071308;28;20583;-82
2023/02/13 06:31:26;;;;;;;8.00;5.23;;;7.90;1.00;;;;;;5060905;28;20543;-82
2023/02/13 06:33:53;;;;;;;9.97;5.73;;;7.80;1.00;;;;;;5078171;28;20543;-83
2023/02/13 06:36:22;;;;;;;7.97;5.33;;;7.70;1.00;;;;;;5095501;28;20475;-82
2023/02/13 06:38:51;;;;;;;10.20;6.30;;;7.60;1.00;;;;;;5094639;28;20499;-83
2023/02/13 06:41:17;;;;;;;11.03;6.53;;;7.40;1.00;;;;;;5097652;28;20479;-80
2023/02/13 06:43:44;;;;;;;7.27;5.30;;;7.30;1.00;;;;;;5091048;28;20498;-78
2023/02/13 06:46:11;;;;;;;9.60;6.47;;;7.20;1.00;;;;;;5095296;28;20479;-80
2023/02/13 06:48:38;;;;;;;10.93;6.07;;;7.10;1.00;;;;;;5098321;28;20475;-82
2023/02/13 06:51:05;;;;;;;8.13;5.30;;;7.00;1.00;;;;;;5089325;28;20510;-84
2023/02/13 06:53:32;;;;;;;7.90;5.80;;;6.90;3.50;;;;;;5082196;28;20532;-83
2023/02/13 06:56:04;;;;;;;11.43;6.57;;;6.80;26.50;;;;;;5081728;28;20526;-83
2023/02/13 06:58:31;;;;;;;9.43;5.83;;;6.70;36.50;;;;;;5079528;28;20492;-82
2023/02/13 07:00:58;;;;;;;10.90;6.53;;;6.70;54.80;;;;;;5080780;28;20526;-84
2023/02/13 07:03:24;;;;;;;10.83;6.10;;;6.60;59.80;;;;;;5083312;28;21004;-83
2023/02/13 07:05:51;;;;;;;10.10;6.40;;;6.60;77.40;;;;;;5092953;28;20464;-83
2023/02/13 07:08:19;;;;;;;8.97;5.50;;;6.50;89.50;;;;;;5095762;28;20493;-81
2023/02/13 07:10:45;;;;;;;11.10;5.73;;;6.50;91.70;;;;;;5083245;28;20466;-83
2023/02/13 07:13:14;;;;;;;12.30;6.80;;;6.40;99.90;;;;;;5084274;28;20554;-83
2023/02/13 07:15:41;;;;;;;10.10;6.33;;;6.40;99.90;;;;;;5078322;28;20494;-82
2023/02/13 07:18:08;;;;;;;8.03;6.00;;;6.30;99.90;;;;;;5074127;28;20555;-84
2023/02/13 07:20:35;;;;;;;9.60;6.60;;;6.30;99.90;;;;;;5083558;28;20499;-84
2023/02/13 07:23:04;;;;;;;8.77;6.33;;;6.30;99.90;;;;;;5075628;28;20553;-83
2023/02/13 07:25:32;;;;;;;9.03;6.67;;;6.20;99.90;;;;;;5082590;28;20544;-82
2023/02/13 07:28:02;;;;;;;12.17;6.00;;;6.20;99.90;;;;;;5074827;28;20485;-84
2023/02/13 07:30:31;;;;;;;13.83;7.30;;;6.20;99.90;;;;;;5081899;28;20489;-84
2023/02/13 07:33:00;;;;;;;10.88;7.32;;;6.20;99.90;;;;;;5066560;28;20585;-83
2023/02/13 07:35:26;;;;;;;12.17;7.33;;;6.20;99.90;;;;;;5079664;28;20294;-82
2023/02/13 07:37:53;;;;;;;9.53;6.50;;;6.30;99.90;;;;;;5081825;28;21009;-82
2023/02/13 07:40:20;;;;;;;11.47;7.53;;;6.30;99.90;;;;;;5079744;28;20452;-82
2023/02/13 07:42:47;;;;;;;11.07;7.20;;;6.30;99.90;;;;;;5072529;28;20525;-83
2023/02/13 07:45:14;;;;;;;10.70;6.50;;;6.30;99.90;;;;;;5076340;28;21773;-84
2023/02/13 07:47:43;;;;;;;10.10;6.90;;;6.30;99.90;;;;;;5069647;28;20575;-83
2023/02/13 07:50:10;;;;;;;10.00;6.03;;;6.30;99.90;;;;;;5074091;28;20482;-86
2023/02/13 07:52:37;;;;;;;10.97;7.03;;;6.30;99.90;;;;;;5063793;28;20553;-83
2023/02/13 07:55:05;;;;;;;9.90;7.20;;;6.40;99.90;;;;;;5070611;28;20470;-83
2023/02/13 07:57:32;;;;;;;11.23;6.40;;;6.40;99.90;;;;;;5070893;28;20458;-82
2023/02/13 08:00:00;;;;;;;12.40;7.07;;;6.40;99.90;;;;;;5077819;28;20475;-84
2023/02/13 08:02:27;;;;;;;12.53;7.80;;;6.40;99.90;;;;;;5078951;28;20871;-83
2023/02/13 08:04:55;;;;;;;14.53;8.67;;;6.50;99.90;;;;;;5082338;28;20908;-82
2023/02/13 08:07:22;;;;;;;11.27;6.30;;;6.50;99.90;;;;;;5105104;28;20561;-82
2023/02/13 08:12:35;;;;;;;12.60;7.63;;;6.70;99.90;;;;;;5076937;28;20815;-82
2023/02/13 08:15:02;;;;;;;12.30;8.03;;;6.80;99.90;;;;;;5087864;28;20542;-82
2023/02/13 08:17:29;;;;;;;14.30;7.97;;;7.00;99.90;;;;;;5067823;28;20518;-82
2023/02/13 08:19:57;;;;;;;11.23;6.50;;;7.10;99.90;;;;;;5070575;28;20495;-82
2023/02/13 08:22:24;;;;;;;11.90;7.80;;;7.30;99.90;;;;;;5082519;28;21090;-84
2023/02/13 08:24:51;;;;;;;11.30;7.60;;;7.30;99.90;;;;;;5084491;28;20497;-83
2023/02/13 08:27:18;;;;;;;12.20;7.80;;;7.40;99.90;;;;;;5074170;28;20498;-83
2023/02/13 08:29:45;;;;;;;9.60;6.27;;;7.50;99.90;;;;;;5078150;28;20629;-83
2023/02/13 08:32:12;;;;;;;12.67;7.47;;;7.60;99.90;;;;;;5070704;28;20463;-82
2023/02/13 08:34:38;;;;;;;10.20;7.03;;;7.60;95.50;;;;;;5079738;28;20566;-83
2023/02/13 08:37:07;;;;;;;9.27;5.80;;;7.70;96.50;;;;;;5081752;28;20475;-84
2023/02/13 08:39:34;;;;;;;10.67;6.93;;;7.70;96.20;;;;;;5075580;28;20495;-81
2023/02/13 08:42:01;;;;;;;10.33;6.33;;;7.80;77.20;;;;;;5073846;28;21063;-81
2023/02/13 08:44:27;;;;;;;9.83;6.00;;;7.90;88.20;;;;;;5081777;28;20530;-82
2023/02/13 08:46:54;;;;;;;11.60;7.13;;;7.90;85.50;;;;;;5069240;28;20467;-83
2023/02/13 08:49:22;;;;;;;12.10;6.80;;;7.90;59.10;;;;;;5073734;28;21130;-82
2023/02/13 08:51:49;;;;;;;11.43;6.87;;;8.00;59.10;;;;;;5078036;28;20458;-82
2023/02/13 08:54:20;;;;;;;8.83;6.60;;;8.10;31.00;;;;;;5085108;28;20482;-83
2023/02/13 08:56:46;;;;;;;12.90;6.20;;;8.20;31.20;;;;;;5084403;28;20448;-81
2023/02/13 08:59:13;;;;;;;8.67;6.47;;;8.20;22.30;;;;;;5093185;28;20493;-84
2023/02/13 09:01:40;;;;;;;12.43;6.20;;;8.20;15.80;;;;;;5086159;28;20495;-83
2023/02/13 09:04:07;;;;;;;8.90;6.17;;;8.30;4.20;;;;;;5099223;28;20525;-85
2023/02/13 09:06:34;;;;;;;11.20;7.60;;;8.60;9.90;;;;;;5095427;28;20470;-84
2023/02/13 09:09:03;;;;;;;10.30;7.10;;;8.80;1.00;;;;;;5089240;28;20464;-85
2023/02/13 09:11:31;;;;;;;9.63;6.10;;;9.00;1.00;;;;;;5089322;28;20458;-82
2023/02/13 09:13:58;;;;;;;9.90;5.93;;;9.20;1.00;;;;;;5075913;28;20505;-82
2023/02/13 09:16:25;;;;;;;10.13;6.30;;;9.20;1.00;;;;;;5071762;28;20491;-82
2023/02/13 09:18:52;;;;;;;8.50;6.80;;;9.20;1.00;;;;;;5100533;28;20542;-84
2023/02/13 09:21:21;;;;;;;10.20;7.10;;;9.40;1.00;;;;;;5084949;28;20503;-82
2023/02/13 09:23:49;;;;;;;8.27;5.90;;;9.70;1.00;;;;;;5081096;28;20451;-83
2023/02/13 09:26:16;;;;;;;9.13;5.83;;;10.20;1.00;;;;;;5081205;28;20467;-83
2023/02/13 09:28:44;;;;;;;6.90;5.50;;;10.50;99.90;;;;;;5077903;28;20939;-82
2023/02/13 09:31:13;;;;;;;7.17;5.37;;;10.80;1.00;;;;;;5079255;28;20465;-82
2023/02/13 09:33:41;;;;;;;9.70;5.73;;;11.00;1.00;;;;;;5077286;28;20546;-82
2023/02/13 09:36:10;;;;;;;6.57;5.40;;;11.30;1.00;;;;;;5082757;28;20476;-81
2023/02/13 09:38:37;;;;;;;5.97;4.63;;;11.60;99.90;;;;;;5082453;28;20526;-84
2023/02/13 09:41:07;;;;;;;6.47;5.53;;;11.90;99.90;;;;;;5082974;28;20514;-82
2023/02/13 09:43:37;;;;;;;8.10;5.30;;;12.10;99.90;;;;;;5085679;28;20447;-82
2023/02/13 09:46:12;;;;;;;7.37;5.20;;;12.50;99.90;;;;;;5085120;28;20486;-84
2023/02/13 09:48:42;;;;;;;7.73;5.70;;;13.00;99.90;;;;;;5086372;28;20514;-82
2023/02/13 09:51:15;;;;;;;6.83;5.40;;;13.20;99.90;;;;;;5082551;28;20507;-83
2023/02/13 09:53:43;;;;;;;7.50;5.63;;;13.20;99.90;;;;;;5100513;28;20480;-81
2023/02/13 09:56:16;;;;;;;9.70;5.87;;;13.20;99.90;;;;;;5085358;28;20449;-83
2023/02/13 09:58:47;;;;;;;8.27;5.53;;;12.90;99.90;;;;;;5085560;28;20460;-80
2023/02/13 10:01:30;;;;;;;9.20;5.53;;;13.10;99.90;;;;;;5082909;28;20458;-80
2023/02/13 10:04:15;;;;;;;8.33;5.60;;;13.30;91.60;;;;;;5076687;28;20460;-81
2023/02/13 10:06:49;;;;;;;9.63;6.00;;;13.20;72.20;;;;;;5089156;28;20532;-80
2023/02/13 10:09:25;;;;;;;6.07;4.30;;;13.60;73.60;;;;;;5081732;28;20470;-82
2023/02/13 10:12:13;;;;;;;7.73;4.73;;;14.30;54.60;;;;;;5080766;28;20531;-81
2023/02/13 10:14:50;;;;;;;8.97;6.40;;;15.20;1.00;;;;;;5081274;28;20454;-83
2023/02/13 10:17:24;;;;;;;6.87;4.83;;;15.50;1.00;;;;;;5077168;28;20459;-82
2023/02/13 10:19:56;;;;;;;7.27;5.30;;;15.80;1.00;;;;;;5076169;28;20459;-84
2023/02/13 10:22:29;;;;;;;10.10;5.60;;;15.60;1.00;;;;;;5073045;28;20498;-82
2023/02/13 10:25:01;;;;;;;7.43;5.37;;;15.50;1.00;;;;;;5072913;28;20465;-83
2023/02/13 10:27:32;;;;;;;8.20;5.40;;;15.80;1.00;;;;;;5064991;28;20481;-84
2023/02/13 10:30:05;;;;;;;6.37;4.90;;;17.00;1.00;;;;;;5067757;28;20460;-83
2023/02/13 10:32:41;;;;;;;8.07;5.30;;;17.10;1.00;;;;;;5078173;28;20449;-83
2023/02/13 10:35:29;;;;;;;7.10;5.20;;;16.40;1.00;;;;;;5073458;28;20456;-83
2023/02/13 10:37:58;;;;;;;7.30;5.13;;;16.20;1.00;;;;;;5076038;28;20532;-83
2023/02/13 10:40:31;;;;;;;8.30;5.73;;;17.20;1.00;;;;;;5082675;28;20457;-84
2023/02/13 10:43:07;;;;;;;7.70;4.90;;;18.40;1.00;;;;;;5076445;28;20479;-83
2023/02/13 10:45:49;;;;;;;10.63;6.83;;;19.70;1.00;;;;;;5076347;28;20561;-83
2023/02/13 10:48:33;;;;;;;8.00;5.27;;;18.90;1.00;;;;;;5076949;28;20487;-83
2023/02/13 10:51:06;;;;;;;7.00;5.47;;;20.00;1.00;;;;;;5080516;28;21036;-84
2023/02/13 10:53:49;;;;;;;5.17;4.63;;;20.90;1.00;;;;;;5083497;28;20498;-84
2023/02/13 10:56:26;;;;;;;8.30;5.23;;;21.70;1.00;;;;;;5075641;28;20462;-83
2023/02/13 10:59:05;;;;;;;6.07;5.13;;;23.70;1.00;;;;;;5067481;28;20461;-84
2023/02/13 11:01:38;;;;;;;4.60;3.70;;;25.30;1.00;;;;;;5055142;28;20444;-83
2023/02/13 11:04:10;;;;;;;6.10;5.03;;;26.80;1.00;;;;;;5058616;28;20456;-84
2023/02/13 11:06:41;;;;;;;6.70;5.10;;;28.60;1.00;;;;;;5099456;28;20454;-84
2023/02/13 11:09:12;;;;;;;6.17;4.93;;;29.50;1.00;;;;;;5086645;28;21002;-82
2023/02/13 11:11:41;;;;;;;5.50;4.20;;;30.50;1.00;;;;;;5082662;28;20459;-83
2023/02/13 11:14:11;;;;;;;6.97;5.47;;;31.30;1.00;;;;;;5075118;28;20514;-83
2023/02/13 11:16:54;;;;;;;5.70;5.10;;;30.10;1.00;;;;;;5081962;28;20490;-82
2023/02/13 11:19:30;;;;;;;5.50;4.70;;;30.80;1.00;;;;;;5082668;28;20481;-85
2023/02/13 11:22:01;;;;;;;5.73;5.10;;;30.60;1.00;;;;;;5094060;28;20939;-85
2023/02/13 11:24:29;;;;;;;5.30;4.67;;;30.20;1.00;;;;;;5080032;28;20469;-83
2023/02/13 11:27:00;;;;;;;6.00;5.10;;;31.40;1.00;;;;;;5080794;28;20489;-82
2023/02/13 11:29:29;;;;;;;6.63;6.00;;;31.60;1.00;;;;;;5081070;28;20530;-82
2023/02/13 11:32:06;;;;;;;6.20;5.10;;;32.10;1.00;;;;;;5077337;28;20896;-83
2023/02/13 11:34:35;;;;;;;5.80;5.20;;;30.80;1.00;;;;;;5075376;28;21042;-82
2023/02/13 11:37:18;;;;;;;5.20;4.70;;;31.20;1.00;;;;;;5076290;28;20627;-82
2023/02/13 11:39:47;;;;;;;6.17;5.17;;;32.30;1.00;;;;;;5071104;28;20478;-83
2023/02/13 11:42:15;;;;;;;6.70;4.90;;;31.50;1.00;;;;;;5073912;28;20498;-81
2023/02/13 11:44:48;;;;;;;6.40;4.97;;;32.10;1.00;;;;;;5075340;28;20482;-82
2023/02/13 11:47:15;;;;;;;5.27;4.77;;;31.60;1.00;;;;;;5065019;28;20570;-83
2023/02/13 11:49:47;;;;;;;7.27;5.77;;;32.00;1.00;;;;;;5078374;23;20564;-83
2023/02/13 11:52:30;;;;;;;6.43;5.73;;;31.70;1.00;;;;;;5021042;28;20526;-83
2023/02/13 11:54:58;;;;;;;4.77;4.27;;;30.70;1.00;;;;;;5023546;28;20454;-84
2023/02/13 11:57:34;;;;;;;6.17;5.40;;;31.70;1.00;;;;;;5026929;28;20496;-80
2023/02/13 12:00:20;;;;;;;7.60;5.57;;;31.50;1.00;;;;;;5010564;28;20470;-82
2023/02/13 12:02:49;;;;;;;6.40;5.00;;;31.80;1.00;;;;;;5005628;28;20490;-84
2023/02/13 12:05:19;;;;;;;6.47;5.50;;;31.80;1.00;;;;;;5001760;28;20435;-84
2023/02/13 12:07:48;;;;;;;6.30;4.60;;;32.50;1.00;;;;;;5002041;28;20526;-83
2023/02/13 12:10:23;;;;;;;5.40;4.90;;;33.40;1.00;;;;;;5048306;28;20545;-83
2023/02/13 12:12:55;;;;;;;9.30;5.20;;;34.00;1.00;;;;;;5048831;28;20512;-83
2023/02/13 12:15:27;;;;;;;6.77;5.80;;;33.00;1.00;;;;;;5006089;28;20538;-83
2023/02/13 12:18:11;;;;;;;6.00;4.70;;;32.70;1.00;;;;;;5004332;28;20462;-80
2023/02/13 12:20:57;;;;;;;5.90;4.67;;;33.50;1.00;;;;;;5001702;28;20490;-81
2023/02/13 12:23:33;;;;;;;5.93;5.37;;;33.00;1.00;;;;;;5004408;28;20521;-84
2023/02/13 12:26:13;;;;;;;6.47;5.80;;;33.00;1.00;;;;;;5005301;28;20889;-81
2023/02/13 12:28:54;;;;;;;7.00;5.37;;;32.90;1.00;;;;;;4987201;28;20488;-83
2023/02/13 12:31:41;;;;;;;7.27;6.30;;;33.10;1.00;;;;;;4999897;28;20451;-82
2023/02/13 12:34:50;;;;;;;6.57;5.37;;;32.20;1.00;;;;;;5000949;28;20451;-82
2023/02/13 12:37:34;;;;;;;7.30;6.07;;;31.60;1.00;;;;;;4999858;28;20450;-83
2023/02/13 12:40:19;;;;;;;6.40;4.93;;;31.10;1.00;;;;;;4998759;28;20944;-82
2023/02/13 12:42:56;;;;;;;6.93;5.93;;;32.50;1.00;;;;;;4979058;28;20476;-82
2023/02/13 12:45:37;;;;;;;7.47;6.07;;;32.60;1.00;;;;;;4979322;28;20463;-83
2023/02/13 12:48:28;;;;;;;6.33;5.50;;;32.30;1.00;;;;;;4982326;28;20467;-82
2023/02/13 12:51:02;;;;;;;6.30;4.67;;;33.10;1.00;;;;;;4997379;28;20454;-83
2023/02/13 12:53:49;;;;;;;10.53;5.13;;;32.60;1.00;;;;;;5014320;28;20510;-84
2023/02/13 12:56:45;;;;;;;9.10;5.20;;;31.30;1.00;;;;;;4996435;28;20455;-85
2023/02/13 12:59:23;;;;;;;6.10;5.07;;;30.30;1.00;;;;;;5009064;28;20532;-82
2023/02/13 13:02:22;;;;;;;6.10;5.13;;;29.10;99.90;;;;;;4996021;28;20451;-83
2023/02/13 13:04:58;;;;;;;5.87;4.77;;;28.90;99.90;;;;;;4997713;28;20458;-84
2023/02/13 13:07:55;;;;;;;6.57;4.80;;;28.70;99.90;;;;;;4991775;28;21076;-84
2023/02/13 13:10:35;;;;;;;8.27;5.90;;;27.90;99.90;;;;;;5014355;28;20478;-83
2023/02/13 13:13:09;;;;;;;7.20;5.40;;;27.30;99.90;;;;;;4989445;28;21001;-83
2023/02/13 13:15:43;;;;;;;6.30;5.37;;;27.60;99.90;;;;;;4993582;28;20526;-84
2023/02/13 13:18:25;;;;;;;7.23;5.60;;;28.60;99.90;;;;;;4997771;28;20469;-82
2023/02/13 13:21:05;;;;;;;6.90;4.90;;;29.60;99.90;;;;;;4990786;28;20451;-85
2023/02/13 13:23:37;;;;;;;6.20;5.47;;;29.80;99.90;;;;;;5007654;28;20570;-86
2023/02/13 13:26:17;;;;;;;5.53;4.37;;;31.10;1.00;;;;;;5003549;28;20488;-84
2023/02/13 13:28:47;;;;;;;5.70;5.03;;;32.40;1.00;;;;;;5001915;28;20471;-84
2023/02/13 13:31:14;;;;;;;7.53;5.70;;;31.80;1.00;;;;;;5004294;28;20496;-86
2023/02/13 13:33:45;;;;;;;6.20;5.20;;;32.10;1.00;;;;;;5001833;28;20478;-86
2023/02/13 13:36:18;;;;;;;7.17;5.80;;;32.50;1.00;;;;;;5004980;28;20526;-84
2023/02/13 13:39:00;;;;;;;5.70;5.10;;;32.50;1.00;;;;;;5008662;28;20465;-84
2023/02/13 13:41:38;;;;;;;6.60;5.53;;;33.30;1.00;;;;;;5014101;28;20461;-84
2023/02/13 13:44:21;;;;;;;6.10;5.43;;;32.60;1.00;;;;;;4999647;28;20489;-86
2023/02/13 13:46:54;;;;;;;5.83;5.23;;;33.30;1.00;;;;;;4989201;28;20446;-85
2023/02/13 13:49:34;;;;;;;6.60;4.63;;;33.70;1.00;;;;;;5003078;28;20510;-86
2023/02/13 13:52:22;;;;;;;5.60;5.10;;;33.60;1.00;;;;;;4992857;28;20467;-85
2023/02/13 13:54:51;;;;;;;8.60;5.97;;;33.70;1.00;;;;;;4979811;28;20454;-84
2023/02/13 13:57:20;;;;;;;6.13;5.00;;;33.20;1.00;;;;;;4998525;28;20658;-83